sensor_id;sensor_type;location;lat;lon;timestamp;temperature;humidity
75994;DHT22;64680;53.800;9.988;2023-03-12T00:00:34;0.30;83.10
75994;DHT22;64680;53.800;9.988;2023-03-12T00:03:00;0.30;82.90
75994;DHT22;64680;53.800;9.988;2023-03-12T00:05:26;0.20;82.70
75994;DHT22;64680;53.800;9.988;2023-03-12T00:07:52;0.10;82.40
75994;DHT22;64680;53.800;9.988;2023-03-12T00:10:18;0.10;82.40
75994;DHT22;64680;53.800;9.988;2023-03-12T00:12:44;0.10;82.40
75994;DHT22;64680;53.800;9.988;2023-03-12T00:15:10;0.00;82.50
75994;DHT22;64680;53.800;9.988;2023-03-12T00:17:35;0.10;82.80
75994;DHT22;64680;53.800;9.988;2023-03-12T00:20:02;0.10;83.00
75994;DHT22;64680;53.800;9.988;2023-03-12T00:22:29;0.20;82.90
75994;DHT22;64680;53.800;9.988;2023-03-12T00:24:55;0.20;83.10
75994;DHT22;64680;53.800;9.988;2023-03-12T00:27:22;0.20;82.80
75994;DHT22;64680;53.800;9.988;2023-03-12T00:29:48;0.20;82.90
75994;DHT22;64680;53.800;9.988;2023-03-12T00:32:14;0.10;82.90
75994;DHT22;64680;53.800;9.988;2023-03-12T00:34:40;0.10;82.80
75994;DHT22;64680;53.800;9.988;2023-03-12T00:37:06;0.20;83.00
75994;DHT22;64680;53.800;9.988;2023-03-12T00:39:33;0.20;83.00
75994;DHT22;64680;53.800;9.988;2023-03-12T00:41:59;0.20;83.50
75994;DHT22;64680;53.800;9.988;2023-03-12T00:44:24;0.30;83.10
75994;DHT22;64680;53.800;9.988;2023-03-12T00:46:50;0.30;83.10
75994;DHT22;64680;53.800;9.988;2023-03-12T00:49:16;0.30;82.70
75994;DHT22;64680;53.800;9.988;2023-03-12T00:51:41;0.30;82.60
75994;DHT22;64680;53.800;9.988;2023-03-12T00:54:07;0.30;82.60
75994;DHT22;64680;53.800;9.988;2023-03-12T00:56:33;0.30;82.70
75994;DHT22;64680;53.800;9.988;2023-03-12T00:58:58;0.30;82.60
75994;DHT22;64680;53.800;9.988;2023-03-12T01:01:24;0.30;82.60
75994;DHT22;64680;53.800;9.988;2023-03-12T01:03:52;0.30;82.70
75994;DHT22;64680;53.800;9.988;2023-03-12T01:06:17;0.30;82.60
75994;DHT22;64680;53.800;9.988;2023-03-12T01:08:43;0.30;82.70
75994;DHT22;64680;53.800;9.988;2023-03-12T01:11:17;0.30;82.80
75994;DHT22;64680;53.800;9.988;2023-03-12T01:13:43;0.30;82.50
75994;DHT22;64680;53.800;9.988;2023-03-12T01:16:08;0.30;82.60
75994;DHT22;64680;53.800;9.988;2023-03-12T01:18:34;0.30;82.50
75994;DHT22;64680;53.800;9.988;2023-03-12T01:21:00;0.30;82.40
75994;DHT22;64680;53.800;9.988;2023-03-12T01:23:26;0.30;82.30
75994;DHT22;64680;53.800;9.988;2023-03-12T01:25:52;0.30;82.40
75994;DHT22;64680;53.800;9.988;2023-03-12T01:28:21;0.30;82.40
75994;DHT22;64680;53.800;9.988;2023-03-12T01:30:47;0.30;82.50
75994;DHT22;64680;53.800;9.988;2023-03-12T01:33:13;0.30;82.40
75994;DHT22;64680;53.800;9.988;2023-03-12T01:35:39;0.30;82.60
75994;DHT22;64680;53.800;9.988;2023-03-12T01:38:12;0.20;82.50
75994;DHT22;64680;53.800;9.988;2023-03-12T01:40:39;0.20;82.40
75994;DHT22;64680;53.800;9.988;2023-03-12T01:43:26;0.20;82.50
75994;DHT22;64680;53.800;9.988;2023-03-12T01:48:54;0.20;82.70
75994;DHT22;64680;53.800;9.988;2023-03-12T01:51:32;0.30;83.00
75994;DHT22;64680;53.800;9.988;2023-03-12T01:54:01;0.30;83.00
75994;DHT22;64680;53.800;9.988;2023-03-12T01:56:31;0.30;83.10
75994;DHT22;64680;53.800;9.988;2023-03-12T01:59:03;0.30;82.90
75994;DHT22;64680;53.800;9.988;2023-03-12T02:01:30;0.30;83.00
75994;DHT22;64680;53.800;9.988;2023-03-12T02:03:57;0.40;83.00
75994;DHT22;64680;53.800;9.988;2023-03-12T02:06:38;0.30;82.90
75994;DHT22;64680;53.800;9.988;2023-03-12T02:09:08;0.30;82.80
75994;DHT22;64680;53.800;9.988;2023-03-12T02:11:34;0.30;82.90
75994;DHT22;64680;53.800;9.988;2023-03-12T02:14:00;0.30;82.90
75994;DHT22;64680;53.800;9.988;2023-03-12T02:16:26;0.30;82.70
75994;DHT22;64680;53.800;9.988;2023-03-12T02:18:54;0.30;82.70
75994;DHT22;64680;53.800;9.988;2023-03-12T02:21:25;0.30;82.70
75994;DHT22;64680;53.800;9.988;2023-03-12T02:23:54;0.30;82.50
75994;DHT22;64680;53.800;9.988;2023-03-12T02:26:20;0.30;82.50
75994;DHT22;64680;53.800;9.988;2023-03-12T02:28:49;0.30;82.70
75994;DHT22;64680;53.800;9.988;2023-03-12T02:31:18;0.30;82.40
75994;DHT22;64680;53.800;9.988;2023-03-12T02:33:44;0.20;82.30
75994;DHT22;64680;53.800;9.988;2023-03-12T02:36:10;0.20;82.10
75994;DHT22;64680;53.800;9.988;2023-03-12T02:38:42;0.20;82.00
75994;DHT22;64680;53.800;9.988;2023-03-12T02:41:28;0.20;82.00
75994;DHT22;64680;53.800;9.988;2023-03-12T02:44:05;0.10;82.20
75994;DHT22;64680;53.800;9.988;2023-03-12T02:46:37;0.10;81.80
75994;DHT22;64680;53.800;9.988;2023-03-12T02:49:03;0.00;81.80
75994;DHT22;64680;53.800;9.988;2023-03-12T02:51:29;0.00;81.90
75994;DHT22;64680;53.800;9.988;2023-03-12T02:53:55;0.00;82.20
75994;DHT22;64680;53.800;9.988;2023-03-12T02:56:25;0.00;82.10
75994;DHT22;64680;53.800;9.988;2023-03-12T02:58:51;0.00;82.20
75994;DHT22;64680;53.800;9.988;2023-03-12T03:01:18;0.00;82.40
75994;DHT22;64680;53.800;9.988;2023-03-12T03:03:45;0.00;82.60
75994;DHT22;64680;53.800;9.988;2023-03-12T03:06:11;0.00;82.50
75994;DHT22;64680;53.800;9.988;2023-03-12T03:08:37;0.00;82.50
75994;DHT22;64680;53.800;9.988;2023-03-12T03:11:03;0.00;82.50
75994;DHT22;64680;53.800;9.988;2023-03-12T03:13:30;0.00;82.60
75994;DHT22;64680;53.800;9.988;2023-03-12T03:15:55;0.00;82.90
75994;DHT22;64680;53.800;9.988;2023-03-12T03:18:27;0.00;82.70
75994;DHT22;64680;53.800;9.988;2023-03-12T03:21:05;0.00;82.60
75994;DHT22;64680;53.800;9.988;2023-03-12T03:23:31;0.00;82.60
75994;DHT22;64680;53.800;9.988;2023-03-12T03:25:58;0.00;82.60
75994;DHT22;64680;53.800;9.988;2023-03-12T03:28:24;-0.10;82.50
75994;DHT22;64680;53.800;9.988;2023-03-12T03:30:55;-0.10;82.70
75994;DHT22;64680;53.800;9.988;2023-03-12T03:33:27;-0.10;82.70
75994;DHT22;64680;53.800;9.988;2023-03-12T03:35:54;-0.20;82.70
75994;DHT22;64680;53.800;9.988;2023-03-12T03:38:21;-0.20;82.70
75994;DHT22;64680;53.800;9.988;2023-03-12T03:40:46;-0.20;82.70
75994;DHT22;64680;53.800;9.988;2023-03-12T03:43:12;-0.20;82.90
75994;DHT22;64680;53.800;9.988;2023-03-12T03:45:38;-0.20;82.90
75994;DHT22;64680;53.800;9.988;2023-03-12T03:48:04;-0.20;82.90
75994;DHT22;64680;53.800;9.988;2023-03-12T03:50:30;-0.20;82.90
75994;DHT22;64680;53.800;9.988;2023-03-12T03:52:55;-0.20;83.00
75994;DHT22;64680;53.800;9.988;2023-03-12T03:55:21;-0.20;83.00
75994;DHT22;64680;53.800;9.988;2023-03-12T03:57:47;-0.20;83.00
75994;DHT22;64680;53.800;9.988;2023-03-12T04:00:13;-0.20;83.10
75994;DHT22;64680;53.800;9.988;2023-03-12T04:02:43;-0.20;83.00
75994;DHT22;64680;53.800;9.988;2023-03-12T04:05:09;-0.20;83.00
75994;DHT22;64680;53.800;9.988;2023-03-12T04:07:35;-0.20;83.00
75994;DHT22;64680;53.800;9.988;2023-03-12T04:10:02;-0.20;83.10
75994;DHT22;64680;53.800;9.988;2023-03-12T04:12:28;-0.20;83.10
75994;DHT22;64680;53.800;9.988;2023-03-12T04:14:54;-0.20;83.10
75994;DHT22;64680;53.800;9.988;2023-03-12T04:17:21;-0.20;83.10
75994;DHT22;64680;53.800;9.988;2023-03-12T04:19:47;-0.20;83.10
75994;DHT22;64680;53.800;9.988;2023-03-12T04:22:13;-0.20;83.10
75994;DHT22;64680;53.800;9.988;2023-03-12T04:24:38;-0.30;83.10
75994;DHT22;64680;53.800;9.988;2023-03-12T04:27:04;-0.20;83.10
75994;DHT22;64680;53.800;9.988;2023-03-12T04:29:29;-0.20;83.20
75994;DHT22;64680;53.800;9.988;2023-03-12T04:31:55;-0.20;84.00
75994;DHT22;64680;53.800;9.988;2023-03-12T04:34:21;-0.30;83.20
75994;DHT22;64680;53.800;9.988;2023-03-12T04:36:46;-0.30;83.20
75994;DHT22;64680;53.800;9.988;2023-03-12T04:39:15;-0.30;83.30
75994;DHT22;64680;53.800;9.988;2023-03-12T04:41:40;-0.30;83.40
75994;DHT22;64680;53.800;9.988;2023-03-12T04:44:06;-0.30;83.40
75994;DHT22;64680;53.800;9.988;2023-03-12T04:46:31;-0.30;83.40
75994;DHT22;64680;53.800;9.988;2023-03-12T04:48:57;-0.30;83.30
75994;DHT22;64680;53.800;9.988;2023-03-12T04:51:27;-0.40;83.40
75994;DHT22;64680;53.800;9.988;2023-03-12T04:53:52;-0.40;83.40
75994;DHT22;64680;53.800;9.988;2023-03-12T04:56:18;-0.40;83.30
75994;DHT22;64680;53.800;9.988;2023-03-12T04:58:44;-0.40;83.30
75994;DHT22;64680;53.800;9.988;2023-03-12T05:01:31;-0.40;83.40
75994;DHT22;64680;53.800;9.988;2023-03-12T05:03:57;-0.40;83.40
75994;DHT22;64680;53.800;9.988;2023-03-12T05:06:23;-0.40;83.40
75994;DHT22;64680;53.800;9.988;2023-03-12T05:08:49;-0.50;83.40
75994;DHT22;64680;53.800;9.988;2023-03-12T05:11:15;-0.50;83.40
75994;DHT22;64680;53.800;9.988;2023-03-12T05:13:41;-0.50;83.40
75994;DHT22;64680;53.800;9.988;2023-03-12T05:16:06;-0.50;83.40
75994;DHT22;64680;53.800;9.988;2023-03-12T05:18:32;-0.50;83.40
75994;DHT22;64680;53.800;9.988;2023-03-12T05:21:04;-0.50;83.40
75994;DHT22;64680;53.800;9.988;2023-03-12T05:23:31;-0.60;83.80
75994;DHT22;64680;53.800;9.988;2023-03-12T05:25:56;-0.60;83.50
75994;DHT22;64680;53.800;9.988;2023-03-12T05:28:22;-0.60;83.50
75994;DHT22;64680;53.800;9.988;2023-03-12T05:30:56;-0.60;83.50
75994;DHT22;64680;53.800;9.988;2023-03-12T05:33:22;-0.70;83.80
75994;DHT22;64680;53.800;9.988;2023-03-12T05:35:50;-0.70;83.90
75994;DHT22;64680;53.800;9.988;2023-03-12T05:38:15;-0.60;83.80
75994;DHT22;64680;53.800;9.988;2023-03-12T05:40:41;-0.70;83.90
75994;DHT22;64680;53.800;9.988;2023-03-12T05:43:07;-0.60;83.80
75994;DHT22;64680;53.800;9.988;2023-03-12T05:45:32;-0.60;83.90
75994;DHT22;64680;53.800;9.988;2023-03-12T05:47:58;-0.70;83.90
75994;DHT22;64680;53.800;9.988;2023-03-12T05:50:25;-0.70;83.90
75994;DHT22;64680;53.800;9.988;2023-03-12T05:52:50;-0.70;84.00
75994;DHT22;64680;53.800;9.988;2023-03-12T05:55:16;-0.60;84.00
75994;DHT22;64680;53.800;9.988;2023-03-12T05:57:42;-0.60;84.10
75994;DHT22;64680;53.800;9.988;2023-03-12T06:00:09;-0.60;84.00
75994;DHT22;64680;53.800;9.988;2023-03-12T06:02:36;-0.60;84.10
75994;DHT22;64680;53.800;9.988;2023-03-12T06:05:02;-0.60;84.00
75994;DHT22;64680;53.800;9.988;2023-03-12T06:07:28;-0.60;84.10
75994;DHT22;64680;53.800;9.988;2023-03-12T06:09:53;-0.60;84.10
75994;DHT22;64680;53.800;9.988;2023-03-12T06:12:19;-0.60;84.10
75994;DHT22;64680;53.800;9.988;2023-03-12T06:14:44;-0.50;84.20
75994;DHT22;64680;53.800;9.988;2023-03-12T06:17:10;-0.50;84.20
75994;DHT22;64680;53.800;9.988;2023-03-12T06:19:35;-0.40;84.30
75994;DHT22;64680;53.800;9.988;2023-03-12T06:22:01;-0.40;84.20
75994;DHT22;64680;53.800;9.988;2023-03-12T06:24:26;-0.40;84.20
75994;DHT22;64680;53.800;9.988;2023-03-12T06:26:52;-0.40;84.10
75994;DHT22;64680;53.800;9.988;2023-03-12T06:29:17;-0.40;84.00
75994;DHT22;64680;53.800;9.988;2023-03-12T06:31:43;-0.40;83.80
75994;DHT22;64680;53.800;9.988;2023-03-12T06:34:09;-0.40;83.80
75994;DHT22;64680;53.800;9.988;2023-03-12T06:36:34;-0.40;83.80
75994;DHT22;64680;53.800;9.988;2023-03-12T06:39:00;-0.30;83.80
75994;DHT22;64680;53.800;9.988;2023-03-12T06:41:26;-0.30;83.60
75994;DHT22;64680;53.800;9.988;2023-03-12T06:43:51;-0.30;83.50
75994;DHT22;64680;53.800;9.988;2023-03-12T06:46:19;-0.30;83.50
75994;DHT22;64680;53.800;9.988;2023-03-12T06:48:46;-0.30;83.20
75994;DHT22;64680;53.800;9.988;2023-03-12T06:51:13;-0.30;83.10
75994;DHT22;64680;53.800;9.988;2023-03-12T06:53:39;-0.20;83.10
75994;DHT22;64680;53.800;9.988;2023-03-12T06:56:05;0.10;84.10
75994;DHT22;64680;53.800;9.988;2023-03-12T06:58:31;0.60;83.90
75994;DHT22;64680;53.800;9.988;2023-03-12T07:00:57;0.80;82.20
75994;DHT22;64680;53.800;9.988;2023-03-12T07:03:23;1.40;80.90
75994;DHT22;64680;53.800;9.988;2023-03-12T07:05:50;2.20;74.30
75994;DHT22;64680;53.800;9.988;2023-03-12T07:08:17;2.40;54.60
75994;DHT22;64680;53.800;9.988;2023-03-12T07:10:43;2.30;48.70
75994;DHT22;64680;53.800;9.988;2023-03-12T07:13:10;2.20;46.70
75994;DHT22;64680;53.800;9.988;2023-03-12T07:15:36;2.00;46.40
75994;DHT22;64680;53.800;9.988;2023-03-12T07:18:06;1.90;49.80
75994;DHT22;64680;53.800;9.988;2023-03-12T07:20:32;2.00;49.20
75994;DHT22;64680;53.800;9.988;2023-03-12T07:23:00;1.80;48.70
75994;DHT22;64680;53.800;9.988;2023-03-12T07:25:26;1.70;52.50
75994;DHT22;64680;53.800;9.988;2023-03-12T07:27:51;1.70;53.50
75994;DHT22;64680;53.800;9.988;2023-03-12T07:30:17;1.80;51.60
75994;DHT22;64680;53.800;9.988;2023-03-12T07:32:42;1.90;51.00
75994;DHT22;64680;53.800;9.988;2023-03-12T07:35:08;2.10;49.90
75994;DHT22;64680;53.800;9.988;2023-03-12T07:37:34;2.30;48.40
75994;DHT22;64680;53.800;9.988;2023-03-12T07:40:00;2.60;44.60
75994;DHT22;64680;53.800;9.988;2023-03-12T07:42:25;3.00;41.40
75994;DHT22;64680;53.800;9.988;2023-03-12T07:44:51;3.40;38.10
75994;DHT22;64680;53.800;9.988;2023-03-12T07:47:17;3.70;31.80
75994;DHT22;64680;53.800;9.988;2023-03-12T07:49:43;3.70;31.90
75994;DHT22;64680;53.800;9.988;2023-03-12T07:52:08;3.70;33.10
75994;DHT22;64680;53.800;9.988;2023-03-12T07:54:37;3.60;32.10
75994;DHT22;64680;53.800;9.988;2023-03-12T07:57:04;3.40;36.50
75994;DHT22;64680;53.800;9.988;2023-03-12T07:59:30;3.40;36.30
75994;DHT22;64680;53.800;9.988;2023-03-12T08:01:55;3.30;36.70
75994;DHT22;64680;53.800;9.988;2023-03-12T08:04:21;3.20;37.40
75994;DHT22;64680;53.800;9.988;2023-03-12T08:06:47;3.20;38.90
75994;DHT22;64680;53.800;9.988;2023-03-12T08:09:13;3.10;39.70
75994;DHT22;64680;53.800;9.988;2023-03-12T08:11:39;3.00;39.60
75994;DHT22;64680;53.800;9.988;2023-03-12T08:14:04;3.00;40.30
75994;DHT22;64680;53.800;9.988;2023-03-12T08:16:30;3.10;37.30
75994;DHT22;64680;53.800;9.988;2023-03-12T08:18:56;3.20;40.40
75994;DHT22;64680;53.800;9.988;2023-03-12T08:21:22;3.30;36.80
75994;DHT22;64680;53.800;9.988;2023-03-12T08:23:48;3.20;36.60
75994;DHT22;64680;53.800;9.988;2023-03-12T08:26:14;3.50;37.00
75994;DHT22;64680;53.800;9.988;2023-03-12T08:28:39;3.50;34.60
75994;DHT22;64680;53.800;9.988;2023-03-12T08:31:05;3.40;36.80
75994;DHT22;64680;53.800;9.988;2023-03-12T08:33:31;3.30;35.60
75994;DHT22;64680;53.800;9.988;2023-03-12T08:35:57;3.20;37.90
75994;DHT22;64680;53.800;9.988;2023-03-12T08:38:23;3.00;35.10
75994;DHT22;64680;53.800;9.988;2023-03-12T08:40:56;3.00;37.60
75994;DHT22;64680;53.800;9.988;2023-03-12T08:43:22;3.00;36.80
75994;DHT22;64680;53.800;9.988;2023-03-12T08:48:22;3.60;30.80
75994;DHT22;64680;53.800;9.988;2023-03-12T08:50:48;3.60;30.40
75994;DHT22;64680;53.800;9.988;2023-03-12T08:53:14;3.50;29.60
75994;DHT22;64680;53.800;9.988;2023-03-12T08:55:39;3.40;33.00
75994;DHT22;64680;53.800;9.988;2023-03-12T08:58:05;3.30;33.60
75994;DHT22;64680;53.800;9.988;2023-03-12T09:00:31;3.20;29.00
75994;DHT22;64680;53.800;9.988;2023-03-12T09:02:56;3.10;33.10
75994;DHT22;64680;53.800;9.988;2023-03-12T09:05:24;3.00;32.00
75994;DHT22;64680;53.800;9.988;2023-03-12T09:07:50;3.10;31.20
75994;DHT22;64680;53.800;9.988;2023-03-12T09:10:16;3.30;31.00
75994;DHT22;64680;53.800;9.988;2023-03-12T09:12:42;3.30;30.70
75994;DHT22;64680;53.800;9.988;2023-03-12T09:15:09;3.50;29.90
75994;DHT22;64680;53.800;9.988;2023-03-12T09:17:36;3.50;28.70
75994;DHT22;64680;53.800;9.988;2023-03-12T09:20:03;3.50;29.70
75994;DHT22;64680;53.800;9.988;2023-03-12T09:22:32;3.50;28.00
75994;DHT22;64680;53.800;9.988;2023-03-12T09:25:04;3.50;28.10
75994;DHT22;64680;53.800;9.988;2023-03-12T09:27:34;3.60;27.90
75994;DHT22;64680;53.800;9.988;2023-03-12T09:29:59;3.60;24.60
75994;DHT22;64680;53.800;9.988;2023-03-12T09:32:31;3.50;25.50
75994;DHT22;64680;53.800;9.988;2023-03-12T09:34:57;3.50;26.10
75994;DHT22;64680;53.800;9.988;2023-03-12T09:37:23;3.90;25.10
75994;DHT22;64680;53.800;9.988;2023-03-12T09:39:52;4.30;21.30
75994;DHT22;64680;53.800;9.988;2023-03-12T09:42:23;4.40;16.90
75994;DHT22;64680;53.800;9.988;2023-03-12T09:44:50;4.50;18.60
75994;DHT22;64680;53.800;9.988;2023-03-12T09:47:27;4.70;11.70
75994;DHT22;64680;53.800;9.988;2023-03-12T09:52:55;4.70;9.50
75994;DHT22;64680;53.800;9.988;2023-03-12T09:55:23;4.90;1.00
75994;DHT22;64680;53.800;9.988;2023-03-12T09:57:50;4.90;1.00
75994;DHT22;64680;53.800;9.988;2023-03-12T10:00:26;5.00;1.00
75994;DHT22;64680;53.800;9.988;2023-03-12T10:06:16;4.80;1.00
75994;DHT22;64680;53.800;9.988;2023-03-12T10:14:31;5.00;1.00
75994;DHT22;64680;53.800;9.988;2023-03-12T10:22:51;5.20;1.00
75994;DHT22;64680;53.800;9.988;2023-03-12T10:28:28;5.10;1.00
75994;DHT22;64680;53.800;9.988;2023-03-12T10:31:00;4.90;1.00
75994;DHT22;64680;53.800;9.988;2023-03-12T10:33:42;4.80;1.00
75994;DHT22;64680;53.800;9.988;2023-03-12T10:36:15;4.90;1.00
75994;DHT22;64680;53.800;9.988;2023-03-12T10:38:41;4.80;1.00
75994;DHT22;64680;53.800;9.988;2023-03-12T10:41:16;4.80;1.00
75994;DHT22;64680;53.800;9.988;2023-03-12T10:43:43;4.80;1.00
75994;DHT22;64680;53.800;9.988;2023-03-12T10:51:59;4.60;1.00
75994;DHT22;64680;53.800;9.988;2023-03-12T10:54:47;4.40;1.00
75994;DHT22;64680;53.800;9.988;2023-03-12T10:57:14;4.50;1.00
75994;DHT22;64680;53.800;9.988;2023-03-12T10:59:45;4.40;1.00
75994;DHT22;64680;53.800;9.988;2023-03-12T11:07:44;4.40;1.00
75994;DHT22;64680;53.800;9.988;2023-03-12T11:12:37;4.50;1.00
75994;DHT22;64680;53.800;9.988;2023-03-12T11:15:24;4.40;1.00
75994;DHT22;64680;53.800;9.988;2023-03-12T11:17:50;4.40;1.00
75994;DHT22;64680;53.800;9.988;2023-03-12T11:20:26;4.30;1.00
75994;DHT22;64680;53.800;9.988;2023-03-12T11:23:01;4.20;1.00
75994;DHT22;64680;53.800;9.988;2023-03-12T11:25:51;4.30;1.00
75994;DHT22;64680;53.800;9.988;2023-03-12T11:28:23;4.40;1.00
75994;DHT22;64680;53.800;9.988;2023-03-12T11:30:51;4.50;1.00
75994;DHT22;64680;53.800;9.988;2023-03-12T11:33:17;4.50;1.00
75994;DHT22;64680;53.800;9.988;2023-03-12T11:41:31;4.20;1.00
75994;DHT22;64680;53.800;9.988;2023-03-12T11:44:12;4.20;1.00
75994;DHT22;64680;53.800;9.988;2023-03-12T11:50:02;4.20;1.00
75994;DHT22;64680;53.800;9.988;2023-03-12T12:09:06;4.40;1.00
75994;DHT22;64680;53.800;9.988;2023-03-12T12:17:21;4.50;1.00
75994;DHT22;64680;53.800;9.988;2023-03-12T12:26:12;4.30;1.00
75994;DHT22;64680;53.800;9.988;2023-03-12T12:31:53;4.20;1.00
75994;DHT22;64680;53.800;9.988;2023-03-12T12:37:15;4.00;1.00
75994;DHT22;64680;53.800;9.988;2023-03-12T12:42:52;3.70;1.00
75994;DHT22;64680;53.800;9.988;2023-03-12T12:45:20;3.50;1.00
75994;DHT22;64680;53.800;9.988;2023-03-12T12:50:29;3.60;1.00
75994;DHT22;64680;53.800;9.988;2023-03-12T12:53:13;3.60;1.00
75994;DHT22;64680;53.800;9.988;2023-03-12T12:55:48;3.60;1.00
75994;DHT22;64680;53.800;9.988;2023-03-12T13:01:06;3.70;1.00
75994;DHT22;64680;53.800;9.988;2023-03-12T13:03:33;3.60;1.00
75994;DHT22;64680;53.800;9.988;2023-03-12T13:06:02;3.60;1.00
75994;DHT22;64680;53.800;9.988;2023-03-12T13:13:37;3.80;1.00
75994;DHT22;64680;53.800;9.988;2023-03-12T13:18:58;3.60;1.00
75994;DHT22;64680;53.800;9.988;2023-03-12T13:26:59;3.60;1.00
75994;DHT22;64680;53.800;9.988;2023-03-12T13:31:54;3.40;1.00
75994;DHT22;64680;53.800;9.988;2023-03-12T13:36:50;3.20;4.70
75994;DHT22;64680;53.800;9.988;2023-03-12T13:39:21;3.30;6.30
75994;DHT22;64680;53.800;9.988;2023-03-12T13:41:56;3.40;8.60
75994;DHT22;64680;53.800;9.988;2023-03-12T13:52:36;3.10;8.70
75994;DHT22;64680;53.800;9.988;2023-03-12T13:55:21;2.90;9.60
75994;DHT22;64680;53.800;9.988;2023-03-12T13:58:34;2.80;14.10
75994;DHT22;64680;53.800;9.988;2023-03-12T14:16:55;2.40;21.60
75994;DHT22;64680;53.800;9.988;2023-03-12T14:19:27;2.40;28.50
75994;DHT22;64680;53.800;9.988;2023-03-12T14:21:55;2.40;31.80
75994;DHT22;64680;53.800;9.988;2023-03-12T14:24:33;2.40;32.80
75994;DHT22;64680;53.800;9.988;2023-03-12T14:27:01;2.30;38.30
75994;DHT22;64680;53.800;9.988;2023-03-12T14:29:35;2.10;40.80
75994;DHT22;64680;53.800;9.988;2023-03-12T14:32:16;2.00;50.40
75994;DHT22;64680;53.800;9.988;2023-03-12T14:37:42;1.80;57.50
75994;DHT22;64680;53.800;9.988;2023-03-12T14:40:34;1.80;59.00
75994;DHT22;64680;53.800;9.988;2023-03-12T14:43:02;1.70;59.80
75994;DHT22;64680;53.800;9.988;2023-03-12T14:45:27;1.70;60.70
75994;DHT22;64680;53.800;9.988;2023-03-12T14:47:56;1.70;62.80
75994;DHT22;64680;53.800;9.988;2023-03-12T14:50:28;1.60;63.90
75994;DHT22;64680;53.800;9.988;2023-03-12T14:53:09;1.60;64.40
75994;DHT22;64680;53.800;9.988;2023-03-12T14:55:40;1.60;65.40
75994;DHT22;64680;53.800;9.988;2023-03-12T14:58:15;1.60;67.30
75994;DHT22;64680;53.800;9.988;2023-03-12T15:00:42;1.60;69.90
75994;DHT22;64680;53.800;9.988;2023-03-12T15:03:14;1.70;69.70
75994;DHT22;64680;53.800;9.988;2023-03-12T15:05:48;1.70;69.50
75994;DHT22;64680;53.800;9.988;2023-03-12T15:08:15;1.60;69.50
75994;DHT22;64680;53.800;9.988;2023-03-12T15:10:50;1.50;70.70
75994;DHT22;64680;53.800;9.988;2023-03-12T15:13:18;1.40;71.10
75994;DHT22;64680;53.800;9.988;2023-03-12T15:15:51;1.40;72.70
75994;DHT22;64680;53.800;9.988;2023-03-12T15:18:27;1.40;74.00
75994;DHT22;64680;53.800;9.988;2023-03-12T15:20:53;1.30;74.50
75994;DHT22;64680;53.800;9.988;2023-03-12T15:23:21;1.30;75.50
75994;DHT22;64680;53.800;9.988;2023-03-12T15:26:11;1.20;75.50
75994;DHT22;64680;53.800;9.988;2023-03-12T15:28:38;1.20;76.20
75994;DHT22;64680;53.800;9.988;2023-03-12T15:33:30;1.10;77.20
75994;DHT22;64680;53.800;9.988;2023-03-12T15:36:02;1.10;77.80
75994;DHT22;64680;53.800;9.988;2023-03-12T15:38:29;1.00;78.00
75994;DHT22;64680;53.800;9.988;2023-03-12T15:41:07;1.00;78.50
75994;DHT22;64680;53.800;9.988;2023-03-12T15:43:33;1.00;78.80
75994;DHT22;64680;53.800;9.988;2023-03-12T15:46:03;0.90;79.10
75994;DHT22;64680;53.800;9.988;2023-03-12T15:48:39;0.90;80.20
75994;DHT22;64680;53.800;9.988;2023-03-12T15:51:34;0.90;81.00
75994;DHT22;64680;53.800;9.988;2023-03-12T15:56:42;1.00;82.70
75994;DHT22;64680;53.800;9.988;2023-03-12T16:01:48;1.00;82.70
75994;DHT22;64680;53.800;9.988;2023-03-12T16:04:14;1.00;82.90
75994;DHT22;64680;53.800;9.988;2023-03-12T16:06:40;1.10;83.20
75994;DHT22;64680;53.800;9.988;2023-03-12T16:09:15;1.00;83.10
75994;DHT22;64680;53.800;9.988;2023-03-12T16:11:41;1.00;83.40
75994;DHT22;64680;53.800;9.988;2023-03-12T16:16:41;1.10;84.00
75994;DHT22;64680;53.800;9.988;2023-03-12T16:19:16;1.00;83.60
75994;DHT22;64680;53.800;9.988;2023-03-12T16:21:42;0.90;83.40
75994;DHT22;64680;53.800;9.988;2023-03-12T16:24:08;1.00;83.70
75994;DHT22;64680;53.800;9.988;2023-03-12T16:26:36;1.00;83.60
75994;DHT22;64680;53.800;9.988;2023-03-12T16:29:03;0.90;83.50
75994;DHT22;64680;53.800;9.988;2023-03-12T16:31:29;0.90;83.80
75994;DHT22;64680;53.800;9.988;2023-03-12T16:33:54;0.90;84.20
75994;DHT22;64680;53.800;9.988;2023-03-12T16:36:20;0.90;84.40
75994;DHT22;64680;53.800;9.988;2023-03-12T16:38:46;1.00;84.60
75994;DHT22;64680;53.800;9.988;2023-03-12T16:41:15;1.00;84.70
75994;DHT22;64680;53.800;9.988;2023-03-12T16:43:41;1.00;84.80
75994;DHT22;64680;53.800;9.988;2023-03-12T16:46:09;1.00;85.00
75994;DHT22;64680;53.800;9.988;2023-03-12T16:48:35;1.00;85.00
75994;DHT22;64680;53.800;9.988;2023-03-12T16:51:01;1.00;85.10
75994;DHT22;64680;53.800;9.988;2023-03-12T16:53:27;1.10;85.30
75994;DHT22;64680;53.800;9.988;2023-03-12T16:55:55;1.10;85.40
75994;DHT22;64680;53.800;9.988;2023-03-12T16:58:23;1.10;85.50
75994;DHT22;64680;53.800;9.988;2023-03-12T17:00:50;1.10;85.50
75994;DHT22;64680;53.800;9.988;2023-03-12T17:03:33;1.20;85.80
75994;DHT22;64680;53.800;9.988;2023-03-12T17:05:59;1.20;85.70
75994;DHT22;64680;53.800;9.988;2023-03-12T17:08:25;1.20;85.80
75994;DHT22;64680;53.800;9.988;2023-03-12T17:10:51;1.30;86.00
75994;DHT22;64680;53.800;9.988;2023-03-12T17:13:20;1.30;86.10
75994;DHT22;64680;53.800;9.988;2023-03-12T17:15:47;1.30;86.00
75994;DHT22;64680;53.800;9.988;2023-03-12T17:18:13;1.30;86.10
75994;DHT22;64680;53.800;9.988;2023-03-12T17:20:38;1.30;86.10
75994;DHT22;64680;53.800;9.988;2023-03-12T17:23:05;1.30;86.20
75994;DHT22;64680;53.800;9.988;2023-03-12T17:25:34;1.40;86.40
75994;DHT22;64680;53.800;9.988;2023-03-12T17:27:59;1.40;86.40
75994;DHT22;64680;53.800;9.988;2023-03-12T17:30:27;1.40;86.40
75994;DHT22;64680;53.800;9.988;2023-03-12T17:33:00;1.40;86.40
75994;DHT22;64680;53.800;9.988;2023-03-12T17:35:26;1.40;86.50
75994;DHT22;64680;53.800;9.988;2023-03-12T17:37:51;1.50;86.50
75994;DHT22;64680;53.800;9.988;2023-03-12T17:40:17;1.40;86.40
75994;DHT22;64680;53.800;9.988;2023-03-12T17:42:43;1.40;86.40
75994;DHT22;64680;53.800;9.988;2023-03-12T17:45:09;1.50;86.60
75994;DHT22;64680;53.800;9.988;2023-03-12T17:47:35;1.50;86.70
75994;DHT22;64680;53.800;9.988;2023-03-12T17:50:02;1.50;86.70
75994;DHT22;64680;53.800;9.988;2023-03-12T17:52:28;1.60;86.70
75994;DHT22;64680;53.800;9.988;2023-03-12T17:54:56;1.60;86.70
75994;DHT22;64680;53.800;9.988;2023-03-12T17:57:21;1.70;87.10
75994;DHT22;64680;53.800;9.988;2023-03-12T17:59:49;1.70;86.90
75994;DHT22;64680;53.800;9.988;2023-03-12T18:02:15;1.70;86.90
75994;DHT22;64680;53.800;9.988;2023-03-12T18:04:41;1.70;87.00
75994;DHT22;64680;53.800;9.988;2023-03-12T18:07:07;1.80;87.00
75994;DHT22;64680;53.800;9.988;2023-03-12T18:09:33;1.80;87.10
75994;DHT22;64680;53.800;9.988;2023-03-12T18:11:58;1.90;87.10
75994;DHT22;64680;53.800;9.988;2023-03-12T18:14:24;2.00;87.10
75994;DHT22;64680;53.800;9.988;2023-03-12T18:16:50;2.00;87.20
75994;DHT22;64680;53.800;9.988;2023-03-12T18:19:15;2.10;88.00